createdAt,value
2022-09-06T00:00:18.902Z,99.90
2022-09-06T00:02:45.727Z,99.90
2022-09-06T00:05:13.736Z,99.90
2022-09-06T00:07:41.045Z,99.90
2022-09-06T00:10:10.353Z,99.90
2022-09-06T00:12:37.794Z,99.90
2022-09-06T00:15:05.916Z,99.90
2022-09-06T00:17:33.984Z,99.90
2022-09-06T00:20:00.876Z,99.90
2022-09-06T00:22:27.621Z,99.90
2022-09-06T00:24:54.357Z,99.90
2022-09-06T00:27:21.168Z,99.90
2022-09-06T00:29:48.228Z,99.90
2022-09-06T00:32:15.139Z,99.90
2022-09-06T00:34:42.204Z,99.90
2022-09-06T00:37:08.963Z,99.90
2022-09-06T00:39:35.776Z,99.90
2022-09-06T00:42:02.517Z,99.90
2022-09-06T00:44:29.230Z,99.90
2022-09-06T00:46:56.152Z,99.90
2022-09-06T00:49:28.066Z,99.90
2022-09-06T00:52:04.856Z,99.90
2022-09-06T00:54:32.002Z,99.90
2022-09-06T00:56:59.274Z,99.90
2022-09-06T00:59:29.626Z,99.90
2022-09-06T01:01:56.649Z,99.90
2022-09-06T01:04:24.209Z,99.90
2022-09-06T01:06:50.873Z,99.90
2022-09-06T01:09:46.135Z,99.90
2022-09-06T01:12:31.639Z,99.90
2022-09-06T01:15:25.992Z,99.90
2022-09-06T01:18:04.224Z,99.90
2022-09-06T01:20:57.281Z,99.90
2022-09-06T01:24:04.344Z,99.90
2022-09-06T01:27:02.101Z,99.90
2022-09-06T01:29:39.461Z,99.90
2022-09-06T01:32:22.145Z,99.90
2022-09-06T01:34:55.981Z,99.90
2022-09-06T01:37:23.088Z,99.90
2022-09-06T01:39:50.094Z,99.90
2022-09-06T01:42:22.240Z,99.90
2022-09-06T01:45:01.423Z,99.90
2022-09-06T01:48:10.832Z,99.90
2022-09-06T01:51:02.995Z,99.90
2022-09-06T01:53:39.240Z,99.90
2022-09-06T01:56:47.467Z,99.90
2022-09-06T01:59:19.838Z,99.90
2022-09-06T02:02:06.701Z,99.90
2022-09-06T02:04:54.429Z,99.90
2022-09-06T02:07:25.903Z,99.90
2022-09-06T02:13:43.324Z,99.90
2022-09-06T02:16:13.115Z,99.90
2022-09-06T02:18:57.151Z,99.90
2022-09-06T02:21:30.393Z,99.90
2022-09-06T02:24:30.304Z,99.90
2022-09-06T02:26:57.701Z,99.90
2022-09-06T02:29:24.668Z,99.90
2022-09-06T02:31:57.344Z,99.90
2022-09-06T02:34:24.102Z,99.90
2022-09-06T02:36:50.853Z,99.90
2022-09-06T02:39:17.648Z,99.90
2022-09-06T02:41:46.566Z,99.90
2022-09-06T02:44:13.546Z,99.90
2022-09-06T02:46:40.527Z,99.90
2022-09-06T02:49:07.333Z,99.90
2022-09-06T02:51:40.598Z,99.90
2022-09-06T02:54:07.788Z,99.90
2022-09-06T02:56:36.483Z,99.90
2022-09-06T02:59:05.567Z,99.90
2022-09-06T03:01:33.177Z,99.90
2022-09-06T03:04:00.492Z,99.90
2022-09-06T03:06:27.455Z,99.90
2022-09-06T03:08:54.266Z,99.90
2022-09-06T03:11:20.978Z,99.90
2022-09-06T03:13:51.407Z,99.90
2022-09-06T03:16:19.251Z,99.90
2022-09-06T03:18:46.982Z,99.90
2022-09-06T03:21:14.571Z,99.90
2022-09-06T03:23:41.418Z,99.90
2022-09-06T03:26:08.493Z,99.90
2022-09-06T03:28:35.261Z,99.90
2022-09-06T03:31:02.026Z,99.90
2022-09-06T03:33:28.818Z,99.90
2022-09-06T03:36:01.246Z,99.90
2022-09-06T03:38:28.946Z,99.90
2022-09-06T03:40:56.274Z,99.90
2022-09-06T03:43:24.780Z,99.90
2022-09-06T03:45:53.916Z,99.90
2022-09-06T03:48:22.748Z,99.90
2022-09-06T03:50:54.168Z,99.90
2022-09-06T03:53:22.290Z,99.90
2022-09-06T03:55:53.552Z,99.90
2022-09-06T03:58:22.278Z,99.90
2022-09-06T04:00:49.334Z,99.90
2022-09-06T04:03:19.358Z,99.90
2022-09-06T04:05:46.835Z,99.90
2022-09-06T04:08:13.716Z,99.90
2022-09-06T04:10:41.005Z,99.90
2022-09-06T04:13:07.722Z,99.90
2022-09-06T04:15:34.489Z,99.90
2022-09-06T04:18:03.900Z,99.90
2022-09-06T04:20:32.766Z,99.90
2022-09-06T04:22:59.647Z,99.90
2022-09-06T04:25:26.458Z,99.90
2022-09-06T04:27:53.183Z,99.90
2022-09-06T04:30:19.902Z,99.90
2022-09-06T04:32:46.580Z,99.90
2022-09-06T04:35:13.798Z,99.90
2022-09-06T04:37:40.696Z,99.90
2022-09-06T04:40:08.026Z,99.90
2022-09-06T04:42:34.937Z,99.90
2022-09-06T04:45:01.705Z,99.90
2022-09-06T04:47:28.629Z,99.90
2022-09-06T04:49:55.559Z,99.90
2022-09-06T04:52:22.221Z,99.90
2022-09-06T04:54:49.429Z,99.90
2022-09-06T04:57:16.149Z,99.90
2022-09-06T04:59:42.857Z,99.90
2022-09-06T05:02:09.571Z,99.90
2022-09-06T05:04:36.420Z,99.90
2022-09-06T05:07:05.471Z,99.90
2022-09-06T05:09:33.272Z,99.90
2022-09-06T05:12:00.639Z,99.90
2022-09-06T05:14:28.551Z,99.90
2022-09-06T05:16:55.681Z,99.90
2022-09-06T05:19:22.867Z,99.90
2022-09-06T05:21:51.571Z,99.90
2022-09-06T05:24:18.635Z,99.90
2022-09-06T05:26:45.462Z,99.90
2022-09-06T05:29:12.419Z,99.90
2022-09-06T05:31:39.206Z,99.90
2022-09-06T05:34:06.036Z,99.90
2022-09-06T05:36:33.012Z,99.90
2022-09-06T05:38:59.964Z,99.90
2022-09-06T05:41:27.185Z,99.90
2022-09-06T05:43:54.124Z,99.90
2022-09-06T05:46:21.250Z,99.90
2022-09-06T05:48:55.440Z,99.90
2022-09-06T05:51:22.172Z,99.90
2022-09-06T05:53:49.137Z,99.90
2022-09-06T05:56:17.025Z,99.90
2022-09-06T05:58:43.984Z,99.90
2022-09-06T06:01:19.045Z,99.90
2022-09-06T06:04:03.486Z,99.90
2022-09-06T06:06:32.149Z,99.90
2022-09-06T06:08:59.501Z,99.90
2022-09-06T06:11:27.149Z,99.90
2022-09-06T06:13:54.140Z,99.90
2022-09-06T06:16:22.686Z,99.90
2022-09-06T06:18:52.167Z,99.90
2022-09-06T06:21:22.546Z,99.90
2022-09-06T06:23:54.322Z,99.90
2022-09-06T06:26:21.739Z,99.90
2022-09-06T06:28:49.170Z,99.90
2022-09-06T06:31:16.240Z,99.90
2022-09-06T06:33:43.380Z,99.90
2022-09-06T06:36:15.936Z,99.90
2022-09-06T06:38:46.339Z,99.90
2022-09-06T06:41:15.586Z,99.90
2022-09-06T06:43:42.374Z,99.90
2022-09-06T06:46:15.185Z,99.90
2022-09-06T06:48:43.780Z,99.90
2022-09-06T06:51:12.772Z,99.90
2022-09-06T06:53:39.754Z,99.90
2022-09-06T06:56:27.353Z,99.90
2022-09-06T06:58:57.652Z,99.90
2022-09-06T07:01:26.326Z,99.90
2022-09-06T07:03:54.346Z,99.90
2022-09-06T07:09:09.166Z,99.90
2022-09-06T07:11:35.810Z,99.90
2022-09-06T07:14:02.723Z,99.90
2022-09-06T07:16:30.053Z,99.90
2022-09-06T07:18:56.811Z,99.90
2022-09-06T07:21:42.191Z,99.90
2022-09-06T07:24:09.815Z,99.90
2022-09-06T07:26:39.547Z,99.90
2022-09-06T07:29:07.567Z,99.90
2022-09-06T07:34:22.285Z,99.90
2022-09-06T07:36:53.338Z,99.90
2022-09-06T07:39:20.196Z,99.90
2022-09-06T07:41:47.074Z,99.90
2022-09-06T07:44:13.882Z,99.90
2022-09-06T07:46:40.722Z,99.90
2022-09-06T07:49:07.671Z,99.90
2022-09-06T07:51:34.451Z,99.90
2022-09-06T07:54:26.343Z,99.90
2022-09-06T07:56:49.174Z,99.90
2022-09-06T07:59:16.364Z,99.90
2022-09-06T08:01:43.229Z,99.90
2022-09-06T08:04:15.541Z,99.90
2022-09-06T08:09:35.216Z,98.80
2022-09-06T08:12:06.801Z,96.50
2022-09-06T08:14:34.436Z,96.50
2022-09-06T08:17:01.773Z,95.90
2022-09-06T08:19:28.589Z,95.60
2022-09-06T08:21:56.055Z,94.10
2022-09-06T08:24:23.342Z,90.90
2022-09-06T08:26:50.287Z,87.90
2022-09-06T08:29:17.452Z,83.80
2022-09-06T08:31:45.437Z,80.60
2022-09-06T08:34:12.772Z,78.60
2022-09-06T08:36:39.903Z,78.60
2022-09-06T08:39:09.873Z,78.80
2022-09-06T08:41:54.677Z,78.00
2022-09-06T08:47:19.617Z,72.90
2022-09-06T08:49:57.399Z,71.40
2022-09-06T08:52:35.310Z,69.10
2022-09-06T08:55:17.167Z,67.20
2022-09-06T08:58:09.014Z,67.30
2022-09-06T09:00:38.134Z,67.50
2022-09-06T09:03:16.520Z,67.70
2022-09-06T09:05:46.942Z,66.90
2022-09-06T09:08:59.098Z,65.00
2022-09-06T09:11:26.185Z,64.00
2022-09-06T09:14:15.769Z,64.10
2022-09-06T09:16:43.135Z,62.80
2022-09-06T09:19:10.085Z,62.80
2022-09-06T09:21:38.767Z,63.40
2022-09-06T09:24:08.485Z,63.10
2022-09-06T09:26:51.930Z,63.00
2022-09-06T09:29:20.852Z,62.40
2022-09-06T09:31:54.123Z,62.20
2022-09-06T09:34:36.808Z,62.60
2022-09-06T09:40:27.504Z,64.90
2022-09-06T09:42:57.349Z,66.00
2022-09-06T09:45:30.003Z,66.70
2022-09-06T09:47:57.500Z,68.30
2022-09-06T09:50:31.112Z,70.00
2022-09-06T09:53:11.824Z,71.70
2022-09-06T09:55:39.971Z,73.20
2022-09-06T09:58:17.369Z,74.30
2022-09-06T10:00:44.318Z,75.70
2022-09-06T10:03:19.865Z,77.30
2022-09-06T10:06:02.777Z,79.10
2022-09-06T10:08:32.796Z,80.40
2022-09-06T10:10:59.694Z,81.60
2022-09-06T10:13:29.697Z,82.60
2022-09-06T10:16:03.806Z,83.90
2022-09-06T10:18:44.013Z,84.70
2022-09-06T10:21:12.850Z,85.90
2022-09-06T10:24:28.889Z,84.00
2022-09-06T10:26:58.958Z,79.00
2022-09-06T10:30:04.578Z,74.00
2022-09-06T10:33:18.723Z,72.20
2022-09-06T10:35:45.703Z,73.10
2022-09-06T10:38:18.804Z,75.90
2022-09-06T10:41:09.698Z,78.00
2022-09-06T10:43:59.340Z,79.00
2022-09-06T10:46:28.509Z,80.20
2022-09-06T10:48:55.367Z,81.70
2022-09-06T10:51:57.536Z,83.40
2022-09-06T10:54:25.029Z,85.70
2022-09-06T10:57:02.508Z,87.30
2022-09-06T10:59:36.706Z,90.00
2022-09-06T11:02:35.932Z,90.80
2022-09-06T11:10:51.598Z,92.10
2022-09-06T11:13:19.823Z,92.50
2022-09-06T11:16:10.959Z,92.70
2022-09-06T11:19:05.348Z,93.10
2022-09-06T11:21:50.694Z,93.30
2022-09-06T11:24:32.585Z,93.60
2022-09-06T11:27:07.751Z,94.00
2022-09-06T11:29:39.996Z,94.30
2022-09-06T11:32:29.487Z,94.60
2022-09-06T11:35:02.913Z,95.30
2022-09-06T11:37:36.312Z,95.90
2022-09-06T11:40:29.424Z,96.30
2022-09-06T11:42:58.669Z,96.40
2022-09-06T11:45:45.143Z,96.70
2022-09-06T11:48:24.078Z,97.20
2022-09-06T11:50:54.007Z,97.40
2022-09-06T11:53:31.058Z,97.00
2022-09-06T11:56:00.622Z,97.20
2022-09-06T11:58:39.901Z,97.60
2022-09-06T12:01:12.929Z,97.90
2022-09-06T12:04:09.067Z,97.80
2022-09-06T12:07:12.315Z,97.30
2022-09-06T12:09:42.670Z,93.60
2022-09-06T12:12:13.601Z,91.00
2022-09-06T12:14:47.786Z,88.10
2022-09-06T12:17:14.498Z,83.90
2022-09-06T12:19:56.426Z,78.20
2022-09-06T12:22:41.093Z,74.10
2022-09-06T12:25:35.782Z,76.10
2022-09-06T12:28:09.865Z,73.60
2022-09-06T12:30:37.328Z,72.10
2022-09-06T12:33:25.771Z,71.90
2022-09-06T12:38:25.210Z,75.60
2022-09-06T12:40:58.324Z,74.10
2022-09-06T12:43:26.415Z,73.20
2022-09-06T12:45:53.217Z,73.70
2022-09-06T12:48:33.439Z,73.40
2022-09-06T12:51:19.467Z,72.20
2022-09-06T12:53:54.186Z,72.20
2022-09-06T12:56:23.391Z,72.70
2022-09-06T12:58:50.243Z,72.70
2022-09-06T13:01:25.576Z,71.10
2022-09-06T13:04:02.788Z,69.30
2022-09-06T13:06:32.787Z,68.40
2022-09-06T13:09:00.903Z,67.10
2022-09-06T13:11:36.369Z,65.80
2022-09-06T13:14:17.160Z,64.20
2022-09-06T13:16:47.249Z,62.60
2022-09-06T13:19:16.103Z,61.90
2022-09-06T13:21:44.697Z,61.30
2022-09-06T13:24:27.050Z,60.60
2022-09-06T13:26:54.102Z,60.10
2022-09-06T13:29:26.042Z,59.80
2022-09-06T13:31:54.978Z,59.80
2022-09-06T13:34:30.686Z,59.60
2022-09-06T13:37:06.587Z,59.90
2022-09-06T13:39:41.496Z,59.80
2022-09-06T13:42:10.833Z,59.50
2022-09-06T13:44:38.997Z,57.40
2022-09-06T13:47:06.335Z,57.50
2022-09-06T13:49:33.918Z,57.60
2022-09-06T13:52:03.045Z,57.70
2022-09-06T13:54:30.764Z,57.60
2022-09-06T13:56:57.884Z,57.00
2022-09-06T13:59:25.307Z,56.90
2022-09-06T14:02:02.026Z,56.60
2022-09-06T14:04:29.024Z,56.20
2022-09-06T14:06:55.962Z,56.30
2022-09-06T14:09:22.840Z,56.70
2022-09-06T14:11:49.664Z,56.50
2022-09-06T14:14:17.887Z,56.40
2022-09-06T14:16:46.083Z,56.60
2022-09-06T14:19:13.161Z,56.30
2022-09-06T14:21:40.353Z,56.10
2022-09-06T14:24:07.381Z,55.70
2022-09-06T14:26:35.792Z,56.00
2022-09-06T14:29:03.309Z,56.00
2022-09-06T14:31:32.474Z,56.30
2022-09-06T14:34:00.720Z,56.20
2022-09-06T14:36:30.375Z,56.40
2022-09-06T14:38:59.039Z,57.20
2022-09-06T14:41:26.417Z,57.40
2022-09-06T14:43:55.292Z,57.70
2022-09-06T14:46:24.164Z,58.50
2022-09-06T14:48:59.567Z,59.60
2022-09-06T14:51:26.707Z,61.30
2022-09-06T14:53:57.865Z,62.70
2022-09-06T14:56:26.570Z,64.20
2022-09-06T14:58:57.188Z,65.40
2022-09-06T15:01:28.565Z,66.40
2022-09-06T15:04:01.738Z,67.90
2022-09-06T15:06:29.985Z,69.60
2022-09-06T15:08:59.583Z,70.30
2022-09-06T15:11:55.883Z,71.30
2022-09-06T15:14:25.345Z,72.50
2022-09-06T15:16:56.503Z,73.10
2022-09-06T15:19:25.214Z,73.60
2022-09-06T15:21:52.184Z,73.50
2022-09-06T15:24:19.443Z,73.00
2022-09-06T15:26:47.221Z,71.60
2022-09-06T15:29:15.335Z,71.30
2022-09-06T15:31:42.978Z,71.90
2022-09-06T15:34:10.465Z,72.50
2022-09-06T15:36:37.988Z,72.60
2022-09-06T15:39:06.100Z,72.70
2022-09-06T15:41:35.603Z,73.10
2022-09-06T15:44:10.566Z,73.30
2022-09-06T15:46:43.849Z,72.90
2022-09-06T15:49:15.622Z,73.60
2022-09-06T15:51:42.807Z,74.40
2022-09-06T15:54:11.544Z,75.30
2022-09-06T15:56:38.633Z,76.10
2022-09-06T15:59:05.982Z,76.90
2022-09-06T16:01:36.204Z,76.30
2022-09-06T16:04:05.949Z,75.30
2022-09-06T16:06:44.368Z,73.90
2022-09-06T16:09:14.309Z,73.30
2022-09-06T16:11:41.871Z,72.60
2022-09-06T16:14:11.930Z,72.40
2022-09-06T16:16:40.384Z,72.80
2022-09-06T16:19:08.254Z,73.00
2022-09-06T16:21:37.902Z,73.70
2022-09-06T16:24:07.082Z,74.20
2022-09-06T16:26:36.876Z,75.10
2022-09-06T16:29:05.774Z,75.60
2022-09-06T16:31:39.972Z,76.10
2022-09-06T16:34:08.404Z,76.90
2022-09-06T16:36:35.614Z,78.20
2022-09-06T16:39:02.615Z,79.10
2022-09-06T16:41:44.174Z,79.80
2022-09-06T16:44:16.321Z,80.80
2022-09-06T16:46:46.037Z,81.00
2022-09-06T16:49:13.178Z,81.40
2022-09-06T16:51:39.910Z,81.70
2022-09-06T16:54:06.854Z,82.00
2022-09-06T16:56:35.901Z,82.20
2022-09-06T16:59:05.562Z,82.70
2022-09-06T17:01:34.920Z,83.90
2022-09-06T17:04:02.515Z,84.80
2022-09-06T17:06:30.435Z,85.80
2022-09-06T17:09:01.029Z,86.60
2022-09-06T17:11:28.867Z,87.50
2022-09-06T17:13:56.842Z,88.20
2022-09-06T17:16:42.727Z,89.20
2022-09-06T17:19:10.489Z,90.10
2022-09-06T17:21:39.198Z,91.10
2022-09-06T17:24:07.267Z,91.70
2022-09-06T17:26:35.918Z,92.20
2022-09-06T17:29:03.726Z,92.80
2022-09-06T17:31:30.631Z,93.40
2022-09-06T17:33:59.574Z,94.00
2022-09-06T17:36:30.361Z,94.70
2022-09-06T17:39:03.274Z,95.30
2022-09-06T17:41:37.800Z,96.20
2022-09-06T17:44:07.744Z,97.20
2022-09-06T17:46:34.440Z,98.30
2022-09-06T17:49:01.292Z,99.80
2022-09-06T17:51:28.119Z,99.90
2022-09-06T17:53:54.825Z,99.90
2022-09-06T17:56:21.816Z,99.90
2022-09-06T17:58:59.401Z,99.90
2022-09-06T18:01:32.151Z,99.90
2022-09-06T18:03:59.603Z,99.90
2022-09-06T18:06:29.351Z,99.90
2022-09-06T18:08:59.520Z,99.90
2022-09-06T18:11:28.840Z,99.90
2022-09-06T18:14:01.336Z,99.90
2022-09-06T18:16:29.577Z,99.90
2022-09-06T18:18:58.740Z,99.90
2022-09-06T18:21:26.934Z,99.90
2022-09-06T18:23:55.263Z,99.90
2022-09-06T18:26:22.839Z,99.90
2022-09-06T18:28:50.152Z,99.90
2022-09-06T18:31:19.842Z,99.90
2022-09-06T18:33:46.755Z,99.90
2022-09-06T18:36:18.062Z,99.90
2022-09-06T18:38:45.297Z,99.90
2022-09-06T18:41:34.726Z,99.90
2022-09-06T18:44:03.202Z,99.90
2022-09-06T18:46:31.867Z,99.90
2022-09-06T18:48:58.903Z,99.90
2022-09-06T18:51:26.036Z,99.90
2022-09-06T18:53:52.896Z,99.90
2022-09-06T18:56:19.986Z,99.90
2022-09-06T18:58:46.836Z,99.90
2022-09-06T19:01:16.262Z,99.90
2022-09-06T19:03:43.886Z,99.90
2022-09-06T19:06:19.263Z,99.90
2022-09-06T19:08:47.392Z,99.90
2022-09-06T19:11:16.985Z,99.90
2022-09-06T19:13:45.572Z,99.90
2022-09-06T19:16:14.177Z,99.90
2022-09-06T19:18:41.930Z,99.90
2022-09-06T19:21:17.566Z,99.90
2022-09-06T19:23:47.104Z,99.90
2022-09-06T19:26:19.627Z,99.90
2022-09-06T19:28:58.531Z,99.90
2022-09-06T19:31:27.733Z,99.90
2022-09-06T19:33:55.651Z,99.90
2022-09-06T19:36:23.967Z,99.90
2022-09-06T19:39:14.465Z,99.90
2022-09-06T19:41:44.988Z,99.90
2022-09-06T19:44:12.748Z,99.90
2022-09-06T19:46:45.438Z,99.90
2022-09-06T19:49:23.205Z,99.90
2022-09-06T19:51:51.523Z,99.90
2022-09-06T19:54:18.872Z,99.90
2022-09-06T19:56:46.171Z,99.90
2022-09-06T19:59:14.350Z,99.90
2022-09-06T20:01:43.344Z,99.90
2022-09-06T20:04:11.266Z,99.90
2022-09-06T20:06:38.525Z,99.90
2022-09-06T20:09:07.408Z,99.90
2022-09-06T20:11:36.133Z,99.90
2022-09-06T20:14:03.141Z,99.90
2022-09-06T20:16:30.546Z,99.90
2022-09-06T20:19:01.491Z,99.90
2022-09-06T20:21:29.697Z,99.90
2022-09-06T20:23:59.113Z,99.90
2022-09-06T20:26:28.565Z,99.90
2022-09-06T20:28:56.685Z,99.90
2022-09-06T20:31:25.356Z,99.90
2022-09-06T20:33:52.162Z,99.90
2022-09-06T20:36:19.352Z,99.90
2022-09-06T20:38:47.209Z,99.90
2022-09-06T20:41:19.305Z,99.90
2022-09-06T20:43:50.285Z,99.90
2022-09-06T20:46:19.330Z,99.90
2022-09-06T20:48:46.796Z,99.90
2022-09-06T20:51:19.431Z,99.90
2022-09-06T20:54:00.657Z,99.90
2022-09-06T20:56:36.547Z,99.90
2022-09-06T20:59:06.154Z,99.90
2022-09-06T21:01:36.651Z,99.90
2022-09-06T21:04:06.317Z,99.90
2022-09-06T21:06:35.741Z,99.90
2022-09-06T21:09:04.761Z,99.90
2022-09-06T21:11:33.183Z,99.90
2022-09-06T21:14:00.297Z,99.90
2022-09-06T21:16:31.193Z,99.90
2022-09-06T21:19:02.639Z,99.90
2022-09-06T21:21:31.221Z,99.90
2022-09-06T21:24:00.733Z,99.90
2022-09-06T21:26:27.867Z,99.90
2022-09-06T21:28:54.811Z,99.90
2022-09-06T21:31:27.771Z,99.90
2022-09-06T21:33:57.318Z,99.90
2022-09-06T21:36:33.189Z,99.90
2022-09-06T21:39:06.650Z,99.90
2022-09-06T21:41:36.614Z,99.90
2022-09-06T21:44:05.286Z,99.90
2022-09-06T21:46:34.916Z,99.90
2022-09-06T21:49:04.509Z,99.90
2022-09-06T21:51:31.563Z,99.90
2022-09-06T21:53:59.143Z,99.90
2022-09-06T21:56:26.570Z,99.90
2022-09-06T21:58:57.958Z,99.90
2022-09-06T22:01:26.781Z,99.90
2022-09-06T22:03:53.834Z,99.90
2022-09-06T22:06:23.475Z,99.90
2022-09-06T22:08:50.558Z,99.90
2022-09-06T22:11:25.121Z,99.90
2022-09-06T22:13:52.645Z,99.90
2022-09-06T22:16:21.616Z,99.90
2022-09-06T22:18:49.382Z,99.90
2022-09-06T22:21:20.100Z,99.90
2022-09-06T22:24:08.188Z,99.90
2022-09-06T22:26:36.886Z,99.90
2022-09-06T22:29:06.065Z,99.90
2022-09-06T22:31:34.617Z,99.90
2022-09-06T22:34:01.694Z,99.90
2022-09-06T22:36:28.716Z,99.90
2022-09-06T22:38:59.039Z,99.90
2022-09-06T22:41:28.543Z,99.90
2022-09-06T22:43:56.517Z,99.90
2022-09-06T22:46:23.478Z,99.90
2022-09-06T22:48:50.403Z,99.90
2022-09-06T22:51:17.163Z,99.90
2022-09-06T22:53:45.293Z,99.90
2022-09-06T22:56:12.167Z,99.90
2022-09-06T22:58:40.191Z,99.90
2022-09-06T23:01:15.197Z,99.90
2022-09-06T23:03:42.297Z,99.90
2022-09-06T23:06:09.720Z,99.90
2022-09-06T23:08:38.452Z,99.90
2022-09-06T23:11:15.584Z,99.90
2022-09-06T23:13:46.103Z,99.90
2022-09-06T23:16:19.411Z,99.90
2022-09-06T23:18:47.201Z,99.90
2022-09-06T23:21:17.745Z,99.90
2022-09-06T23:23:44.685Z,99.90
2022-09-06T23:26:14.122Z,99.90
2022-09-06T23:28:41.298Z,99.90
2022-09-06T23:31:10.661Z,99.90
2022-09-06T23:33:37.974Z,99.90
2022-09-06T23:36:05.688Z,99.90
2022-09-06T23:38:37.113Z,99.90
2022-09-06T23:41:04.871Z,99.90
2022-09-06T23:43:31.952Z,99.90
2022-09-06T23:45:58.889Z,99.90
2022-09-06T23:48:26.195Z,99.90
2022-09-06T23:50:52.970Z,99.90
2022-09-06T23:53:19.738Z,99.90
2022-09-06T23:55:46.560Z,99.90
2022-09-06T23:58:13.718Z,99.90
